createdAt,value
2022-11-23T00:00:45.876Z,99671.53
2022-11-23T00:01:47.919Z,99669.72
2022-11-23T00:02:54.164Z,99676.64
2022-11-23T00:03:59.706Z,99673.98
2022-11-23T00:05:01.591Z,99671.40
2022-11-23T00:06:05.902Z,99672.20
2022-11-23T00:07:07.848Z,99670.63
2022-11-23T00:08:09.764Z,99673.15
2022-11-23T00:09:11.859Z,99670.50
2022-11-23T00:10:14.528Z,99671.61
2022-11-23T00:11:18.625Z,99669.80
2022-11-23T00:12:20.543Z,99664.95
2022-11-23T00:13:22.388Z,99669.20
2022-11-23T00:14:26.945Z,99666.53
2022-11-23T00:15:28.919Z,99674.38
2022-11-23T00:16:31.379Z,99670.89
2022-11-23T00:17:33.292Z,99678.55
2022-11-23T00:18:36.488Z,99676.83
2022-11-23T00:19:38.458Z,99683.84
2022-11-23T00:20:40.411Z,99687.30
2022-11-23T00:21:42.267Z,99689.28
2022-11-23T00:22:44.263Z,99686.44
2022-11-23T00:23:46.616Z,99691.52
2022-11-23T00:24:48.663Z,99687.42
2022-11-23T00:25:51.849Z,99693.31
2022-11-23T00:26:53.820Z,99684.70
2022-11-23T00:27:55.654Z,99681.13
2022-11-23T00:28:57.517Z,99687.38
2022-11-23T00:29:59.393Z,99678.55
2022-11-23T00:31:01.384Z,99688.86
2022-11-23T00:32:03.934Z,99684.46
2022-11-23T00:33:05.812Z,99676.78
2022-11-23T00:34:07.779Z,99681.98
2022-11-23T00:35:09.736Z,99692.30
2022-11-23T00:36:14.391Z,99682.77
2022-11-23T00:37:18.360Z,99686.30
2022-11-23T00:38:20.238Z,99689.69
2022-11-23T00:39:22.620Z,99685.44
2022-11-23T00:40:24.599Z,99687.38
2022-11-23T00:41:28.012Z,99680.39
2022-11-23T00:42:33.834Z,99686.34
2022-11-23T00:43:34.576Z,99677.81
2022-11-23T00:44:36.450Z,99677.66
2022-11-23T00:45:38.326Z,99676.73
2022-11-23T00:46:40.929Z,99674.18
2022-11-23T00:47:42.964Z,99682.79
2022-11-23T00:48:48.211Z,99681.06
2022-11-23T00:49:50.096Z,99687.11
2022-11-23T00:50:52.069Z,99693.06
2022-11-23T00:51:53.937Z,99688.70
2022-11-23T00:52:55.791Z,99692.33
2022-11-23T00:53:59.345Z,99687.17
2022-11-23T00:55:01.220Z,99689.64
2022-11-23T00:56:03.791Z,99694.84
2022-11-23T00:57:05.657Z,99691.30
2022-11-23T00:58:07.520Z,99693.88
2022-11-23T00:59:09.389Z,99691.25
2022-11-23T01:00:14.212Z,99692.97
2022-11-23T01:01:18.079Z,99696.49
2022-11-23T01:02:20.216Z,99686.13
2022-11-23T01:03:22.069Z,99688.77
2022-11-23T01:04:23.971Z,99688.67
2022-11-23T01:05:25.816Z,99687.80
2022-11-23T01:06:30.280Z,99682.88
2022-11-23T01:07:32.356Z,99681.84
2022-11-23T01:08:34.784Z,99697.39
2022-11-23T01:09:37.009Z,99685.17
2022-11-23T01:10:39.200Z,99692.92
2022-11-23T01:11:41.167Z,99692.92
2022-11-23T01:12:43.036Z,99694.70
2022-11-23T01:13:44.921Z,99686.88
2022-11-23T01:14:46.793Z,99689.43
2022-11-23T01:15:50.309Z,99688.50
2022-11-23T01:16:52.393Z,99687.63
2022-11-23T01:17:54.248Z,99693.80
2022-11-23T01:18:58.748Z,99690.33
2022-11-23T01:20:00.849Z,99698.13
2022-11-23T01:21:03.130Z,99693.75
2022-11-23T01:22:05.842Z,99697.25
2022-11-23T01:23:07.758Z,99700.67
2022-11-23T01:25:28.221Z,99697.91
2022-11-23T01:26:30.220Z,99702.72
2022-11-23T01:27:32.092Z,99706.02
2022-11-23T01:28:35.450Z,99711.19
2022-11-23T01:29:37.366Z,99709.42
2022-11-23T01:30:39.332Z,99707.76
2022-11-23T01:31:46.129Z,99705.92
2022-11-23T01:32:45.135Z,99691.62
2022-11-23T01:33:47.810Z,99691.62
2022-11-23T01:34:49.692Z,99707.05
2022-11-23T01:35:51.541Z,99703.45
2022-11-23T01:36:53.550Z,99706.02
2022-11-23T01:37:56.143Z,99706.86
2022-11-23T01:39:00.018Z,99714.88
2022-11-23T01:40:01.992Z,99705.27
2022-11-23T01:41:06.310Z,99703.48
2022-11-23T01:42:08.212Z,99713.80
2022-11-23T01:43:15.460Z,99709.47
2022-11-23T01:44:32.763Z,99713.97
2022-11-23T01:45:46.546Z,99708.86
2022-11-23T01:46:48.670Z,99709.77
2022-11-23T01:47:50.529Z,99715.05
2022-11-23T01:48:59.027Z,99713.20
2022-11-23T01:50:01.114Z,99708.08
2022-11-23T01:51:08.523Z,99714.02
2022-11-23T01:52:23.010Z,99711.59
2022-11-23T01:53:27.690Z,99711.75
2022-11-23T01:54:33.358Z,99708.95
2022-11-23T01:55:36.272Z,99708.84
2022-11-23T01:56:45.041Z,99709.73
2022-11-23T01:57:47.661Z,99708.86
2022-11-23T01:58:53.875Z,99706.31
2022-11-23T01:59:56.772Z,99702.97
2022-11-23T02:00:59.125Z,99707.94
2022-11-23T02:02:01.867Z,99703.58
2022-11-23T02:03:04.947Z,99706.98
2022-11-23T02:04:10.053Z,99716.61
2022-11-23T02:05:16.001Z,99710.60
2022-11-23T02:06:20.714Z,99709.22
2022-11-23T02:07:24.509Z,99715.25
2022-11-23T02:08:28.373Z,99713.40
2022-11-23T02:09:33.230Z,99721.41
2022-11-23T02:10:35.964Z,99718.80
2022-11-23T02:11:37.850Z,99728.31
2022-11-23T02:12:39.731Z,99724.84
2022-11-23T02:13:44.604Z,99731.91
2022-11-23T02:14:47.527Z,99722.41
2022-11-23T02:15:50.215Z,99728.45
2022-11-23T02:16:52.574Z,99726.59
2022-11-23T02:17:55.298Z,99721.47
2022-11-23T02:18:57.342Z,99720.48
2022-11-23T02:20:08.435Z,99726.52
2022-11-23T02:21:12.020Z,99717.87
2022-11-23T02:22:26.593Z,99720.48
2022-11-23T02:23:56.220Z,99731.78
2022-11-23T02:25:02.044Z,99727.36
2022-11-23T02:27:23.522Z,99727.36
2022-11-23T02:28:38.035Z,99726.61
2022-11-23T02:29:40.436Z,99734.34
2022-11-23T02:30:45.439Z,99732.52
2022-11-23T02:31:48.227Z,99724.03
2022-11-23T02:32:50.131Z,99721.31
2022-11-23T02:33:52.193Z,99728.13
2022-11-23T02:34:54.082Z,99718.67
2022-11-23T02:35:58.795Z,99723.88
2022-11-23T02:37:01.401Z,99718.64
2022-11-23T02:38:05.819Z,99728.86
2022-11-23T02:39:14.276Z,99729.75
2022-11-23T02:41:36.847Z,99728.79
2022-11-23T02:42:38.872Z,99739.31
2022-11-23T02:43:42.838Z,99739.31
2022-11-23T02:45:19.961Z,99736.94
2022-11-23T02:46:21.976Z,99730.72
2022-11-23T02:47:23.923Z,99735.99
2022-11-23T02:48:25.855Z,99725.51
2022-11-23T02:49:29.119Z,99730.60
2022-11-23T02:50:31.849Z,99733.16
2022-11-23T02:51:33.712Z,99733.05
2022-11-23T02:52:35.710Z,99744.38
2022-11-23T02:53:37.596Z,99735.75
2022-11-23T02:54:39.455Z,99741.09
2022-11-23T02:55:41.408Z,99734.19
2022-11-23T02:56:43.360Z,99742.80
2022-11-23T02:57:46.161Z,99740.16
2022-11-23T02:58:48.229Z,99742.88
2022-11-23T02:59:50.229Z,99737.73
2022-11-23T03:00:52.453Z,99741.23
2022-11-23T03:01:54.475Z,99746.42
2022-11-23T03:02:58.271Z,99753.27
2022-11-23T03:04:00.160Z,99753.31
2022-11-23T03:05:03.141Z,99751.42
2022-11-23T03:06:05.528Z,99748.04
2022-11-23T03:07:07.426Z,99754.77
2022-11-23T03:08:09.484Z,99749.49
2022-11-23T03:09:11.356Z,99748.83
2022-11-23T03:10:15.294Z,99753.94
2022-11-23T03:11:17.154Z,99751.22
2022-11-23T03:12:19.844Z,99746.12
2022-11-23T03:13:22.134Z,99742.59
2022-11-23T03:14:26.201Z,99751.16
2022-11-23T03:15:28.209Z,99752.01
2022-11-23T03:16:30.186Z,99749.41
2022-11-23T03:17:32.569Z,99752.16
2022-11-23T03:18:34.591Z,99748.53
2022-11-23T03:19:36.552Z,99751.05
2022-11-23T03:20:38.642Z,99744.05
2022-11-23T03:21:40.587Z,99748.33
2022-11-23T03:22:42.691Z,99744.86
2022-11-23T03:23:44.597Z,99737.06
2022-11-23T03:24:46.647Z,99741.34
2022-11-23T03:25:57.388Z,99742.17
2022-11-23T03:27:00.482Z,99742.13
2022-11-23T03:28:02.382Z,99733.57
2022-11-23T03:29:06.353Z,99738.01
2022-11-23T03:30:09.783Z,99743.21
2022-11-23T03:31:11.653Z,99738.72
2022-11-23T03:32:13.547Z,99734.58
2022-11-23T03:33:16.046Z,99738.88
2022-11-23T03:34:17.928Z,99738.91
2022-11-23T03:35:19.827Z,99731.20
2022-11-23T03:36:21.922Z,99730.30
2022-11-23T03:37:24.012Z,99726.71
2022-11-23T03:38:26.809Z,99732.16
2022-11-23T03:39:28.699Z,99728.61
2022-11-23T03:40:30.917Z,99737.16
2022-11-23T03:41:32.979Z,99742.27
2022-11-23T03:42:34.912Z,99737.04
2022-11-23T03:43:36.779Z,99742.17
2022-11-23T03:44:38.770Z,99746.45
2022-11-23T03:45:42.104Z,99745.55
2022-11-23T03:46:44.463Z,99742.08
2022-11-23T03:47:46.337Z,99738.58
2022-11-23T03:48:48.193Z,99746.38
2022-11-23T03:49:50.078Z,99739.59
2022-11-23T03:50:52.141Z,99742.35
2022-11-23T03:51:54.289Z,99741.70
2022-11-23T03:52:56.724Z,99747.92
2022-11-23T03:53:58.811Z,99749.45
2022-11-23T03:55:00.702Z,99751.90
2022-11-23T03:56:03.684Z,99755.66
2022-11-23T03:57:05.696Z,99765.00
2022-11-23T03:58:08.476Z,99763.14
2022-11-23T03:59:10.504Z,99766.60
2022-11-23T04:00:14.516Z,99760.45
2022-11-23T04:01:16.492Z,99758.70
2022-11-23T04:02:18.619Z,99761.33
2022-11-23T04:03:20.484Z,99760.44
2022-11-23T04:04:22.340Z,99764.05
2022-11-23T04:05:24.676Z,99754.47
2022-11-23T04:06:26.622Z,99754.43
2022-11-23T04:07:28.624Z,99763.02
2022-11-23T04:08:30.557Z,99765.59
2022-11-23T04:09:32.820Z,99770.00
2022-11-23T04:10:35.018Z,99765.80
2022-11-23T04:11:36.970Z,99760.44
2022-11-23T04:12:39.185Z,99763.09
2022-11-23T04:13:41.128Z,99764.78
2022-11-23T04:14:43.071Z,99767.31
2022-11-23T04:15:46.051Z,99766.48
2022-11-23T06:00:41.318Z,99814.25
2022-11-23T06:01:44.681Z,99810.89
2022-11-23T06:02:46.767Z,99819.48
2022-11-23T06:03:52.048Z,99822.94
2022-11-23T06:04:54.814Z,99829.06
2022-11-23T06:05:57.188Z,99823.79
2022-11-23T06:06:59.446Z,99822.91
2022-11-23T06:08:01.403Z,99822.81
2022-11-23T06:09:03.421Z,99825.41
2022-11-23T06:10:07.134Z,99816.78
2022-11-23T06:11:09.049Z,99827.20
2022-11-23T06:12:10.877Z,99821.93
2022-11-23T06:13:12.730Z,99820.20
2022-11-23T06:14:16.553Z,99830.53
2022-11-23T06:15:19.391Z,99828.70
2022-11-23T06:16:21.359Z,99825.31
2022-11-23T06:17:23.653Z,99838.19
2022-11-23T06:18:25.637Z,99834.77
2022-11-23T06:19:27.520Z,99837.23
2022-11-23T06:20:29.957Z,99843.45
2022-11-23T06:21:31.827Z,99844.27
2022-11-23T06:22:34.216Z,99841.59
2022-11-23T06:23:36.059Z,99834.78
2022-11-23T06:24:38.907Z,99841.59
2022-11-23T06:25:40.922Z,99841.59
2022-11-23T06:26:42.881Z,99846.81
2022-11-23T06:27:59.255Z,99848.62
2022-11-23T06:29:01.238Z,99844.53
2022-11-23T06:30:04.314Z,99848.96
2022-11-23T06:31:07.027Z,99848.96
2022-11-23T06:32:08.899Z,99843.77
2022-11-23T06:33:10.783Z,99842.94
2022-11-23T06:34:12.926Z,99849.80
2022-11-23T06:35:14.796Z,99848.11
2022-11-23T06:36:17.267Z,99847.13
2022-11-23T06:37:19.150Z,99843.55
2022-11-23T06:38:21.465Z,99842.59
2022-11-23T06:39:23.324Z,99846.88
2022-11-23T06:40:25.575Z,99839.03
2022-11-23T06:41:32.380Z,99846.77
2022-11-23T06:42:40.337Z,99826.11
2022-11-23T06:43:37.258Z,99844.30
2022-11-23T06:44:39.227Z,99847.86
2022-11-23T06:45:41.996Z,99844.22
2022-11-23T06:46:44.190Z,99858.14
2022-11-23T06:47:46.035Z,99846.27
2022-11-23T06:48:47.884Z,99846.97
2022-11-23T06:49:49.828Z,99845.12
2022-11-23T06:50:52.079Z,99846.75
2022-11-23T06:51:54.825Z,99841.55
2022-11-23T06:52:57.396Z,99845.92
2022-11-23T06:53:59.328Z,99851.13
2022-11-23T06:55:01.595Z,99847.58
2022-11-23T06:56:04.505Z,99849.31
2022-11-23T06:57:09.971Z,99846.61
2022-11-23T06:58:11.868Z,99849.22
2022-11-23T06:59:13.759Z,99848.43
2022-11-23T07:00:17.427Z,99847.70
2022-11-23T07:01:19.506Z,99847.73
2022-11-23T07:02:21.694Z,99847.05
2022-11-23T07:03:24.171Z,99844.37
2022-11-23T07:04:26.259Z,99850.31
2022-11-23T07:05:28.220Z,99844.27
2022-11-23T07:06:30.308Z,99852.93
2022-11-23T07:07:33.097Z,99848.84
2022-11-23T07:08:37.582Z,99846.13
2022-11-23T07:09:39.473Z,99844.29
2022-11-23T07:10:41.842Z,99842.52
2022-11-23T07:11:43.717Z,99833.74
2022-11-23T07:12:48.359Z,99844.95
2022-11-23T07:13:50.258Z,99838.85
2022-11-23T07:14:53.290Z,99842.48
2022-11-23T07:15:57.111Z,99847.72
2022-11-23T07:16:59.257Z,99841.69
2022-11-23T07:18:02.179Z,99846.07
2022-11-23T07:19:04.949Z,99840.79
2022-11-23T07:20:10.166Z,99851.06
2022-11-23T07:21:12.103Z,99849.47
2022-11-23T07:22:13.987Z,99849.44
2022-11-23T07:23:16.152Z,99857.23
2022-11-23T07:24:19.249Z,99857.17
2022-11-23T07:25:21.119Z,99857.98
2022-11-23T07:26:23.124Z,99861.38
2022-11-23T07:27:25.039Z,99854.61
2022-11-23T07:28:27.644Z,99857.03
2022-11-23T07:29:29.573Z,99854.41
2022-11-23T07:30:35.961Z,99860.41
2022-11-23T07:31:38.519Z,99850.09
2022-11-23T07:32:40.405Z,99856.91
2022-11-23T07:33:45.844Z,99852.51
2022-11-23T07:34:47.860Z,99846.39
2022-11-23T07:35:49.966Z,99853.57
2022-11-23T07:36:52.140Z,99860.41
2022-11-23T07:37:54.421Z,99860.36
2022-11-23T07:38:56.293Z,99864.56
2022-11-23T07:39:58.743Z,99865.41
2022-11-23T07:41:01.152Z,99863.75
2022-11-23T07:42:30.989Z,99864.09
2022-11-23T07:43:07.708Z,99866.50
2022-11-23T07:44:10.761Z,99867.30
2022-11-23T07:45:12.934Z,99868.05
2022-11-23T07:46:14.907Z,99873.20
2022-11-23T07:47:16.929Z,99871.49
2022-11-23T07:48:18.880Z,99876.73
2022-11-23T07:49:20.765Z,99875.88
2022-11-23T07:50:22.727Z,99867.11
2022-11-23T07:51:25.115Z,99875.19
2022-11-23T07:52:27.376Z,99874.27
2022-11-23T07:53:29.239Z,99870.03
2022-11-23T07:54:31.111Z,99874.49
2022-11-23T07:55:33.901Z,99875.38
2022-11-23T07:56:35.912Z,99880.60
2022-11-23T07:57:37.765Z,99872.80
2022-11-23T07:58:40.424Z,99884.88
2022-11-23T07:59:42.313Z,99888.39
2022-11-23T08:00:44.410Z,99880.44
2022-11-23T08:01:51.233Z,99889.09
2022-11-23T08:03:19.210Z,99879.45
2022-11-23T08:03:55.027Z,99876.75
2022-11-23T08:04:56.881Z,99882.73
2022-11-23T08:05:58.767Z,99878.37
2022-11-23T08:07:00.747Z,99881.00
2022-11-23T08:08:02.960Z,99886.23
2022-11-23T08:09:04.816Z,99881.11
2022-11-23T08:10:08.649Z,99889.05
2022-11-23T08:11:11.396Z,99893.13
2022-11-23T08:12:13.275Z,99891.47
2022-11-23T08:13:15.231Z,99895.80
2022-11-23T08:14:17.091Z,99894.05
2022-11-23T08:15:19.078Z,99888.42
2022-11-23T08:16:21.054Z,99882.28
2022-11-23T08:17:22.929Z,99884.86
2022-11-23T08:18:24.867Z,99899.00
2022-11-23T08:19:26.721Z,99891.40
2022-11-23T08:20:29.884Z,99891.61
2022-11-23T08:21:31.756Z,99895.77
2022-11-23T08:22:33.617Z,99893.96
2022-11-23T08:23:35.477Z,99898.15
2022-11-23T08:24:37.352Z,99899.00
2022-11-23T08:25:39.212Z,99900.78
2022-11-23T08:26:41.195Z,99908.63
2022-11-23T08:27:43.067Z,99906.81
2022-11-23T08:28:44.929Z,99902.58
2022-11-23T08:29:46.797Z,99902.66
2022-11-23T08:30:49.168Z,99906.18
2022-11-23T08:31:51.438Z,99904.43
2022-11-23T08:32:53.546Z,99902.55
2022-11-23T08:33:58.895Z,99897.39
2022-11-23T08:34:59.490Z,99899.91
2022-11-23T08:36:06.764Z,99885.91
2022-11-23T08:37:09.890Z,99894.49
2022-11-23T08:38:11.878Z,99890.98
2022-11-23T08:39:14.286Z,99888.69
2022-11-23T08:40:20.647Z,99896.02
2022-11-23T08:41:20.955Z,99894.29
2022-11-23T08:42:23.630Z,99900.41
2022-11-23T08:43:26.135Z,99901.22
2022-11-23T08:44:28.314Z,99890.91
2022-11-23T08:45:31.423Z,99881.33
2022-11-23T08:46:33.543Z,99891.30
2022-11-23T08:47:35.715Z,99892.14
2022-11-23T08:48:37.574Z,99893.02
2022-11-23T08:49:39.430Z,99888.06
2022-11-23T08:50:41.507Z,99891.34
2022-11-23T08:51:48.563Z,99892.36
2022-11-23T08:52:47.164Z,99887.34
2022-11-23T08:53:50.004Z,99891.55
2022-11-23T08:54:51.885Z,99893.11
2022-11-23T08:55:53.735Z,99892.98
2022-11-23T08:56:57.472Z,99893.05
2022-11-23T08:57:59.726Z,99885.20
2022-11-23T08:59:01.735Z,99879.13
2022-11-23T09:00:05.955Z,99881.68
2022-11-23T09:01:13.424Z,99880.81
2022-11-23T09:02:16.312Z,99880.03
2022-11-23T09:03:18.299Z,99874.83
2022-11-23T09:04:20.947Z,99887.66
2022-11-23T09:05:23.057Z,99873.08
2022-11-23T09:06:25.013Z,99873.84
2022-11-23T09:07:26.954Z,99871.07
2022-11-23T09:08:29.472Z,99870.16
2022-11-23T09:09:31.433Z,99866.83
2022-11-23T09:10:33.518Z,99876.16
2022-11-23T09:11:36.597Z,99871.09
2022-11-23T09:12:38.452Z,99876.23
2022-11-23T09:13:40.653Z,99875.22
2022-11-23T09:14:43.031Z,99870.80
2022-11-23T09:15:45.112Z,99877.70
2022-11-23T09:16:47.381Z,99880.27
2022-11-23T09:17:49.266Z,99878.55
2022-11-23T09:18:56.351Z,99874.53
2022-11-23T09:19:58.874Z,99868.28
2022-11-23T09:21:03.282Z,99873.39
2022-11-23T09:22:05.386Z,99870.81
2022-11-23T09:23:13.931Z,99874.22
2022-11-23T09:24:15.762Z,99859.98
2022-11-23T09:25:18.539Z,99861.66
2022-11-23T09:26:20.511Z,99851.27
2022-11-23T09:27:22.385Z,99863.16
2022-11-23T09:28:24.257Z,99856.14
2022-11-23T09:29:26.950Z,99854.28
2022-11-23T09:30:29.222Z,99853.39
2022-11-23T09:31:31.367Z,99861.39
2022-11-23T09:32:33.315Z,99854.66
2022-11-23T09:33:35.184Z,99849.48
2022-11-23T09:34:37.633Z,99848.39
2022-11-23T09:35:43.841Z,99850.12
2022-11-23T09:36:44.266Z,99842.27
2022-11-23T09:37:46.122Z,99846.84
2022-11-23T09:38:56.542Z,99856.55
2022-11-23T09:39:56.738Z,99858.00
2022-11-23T09:42:24.504Z,99857.81
2022-11-23T09:43:39.429Z,99856.39
2022-11-23T09:45:04.220Z,99855.74
2022-11-23T09:46:15.933Z,99854.91
2022-11-23T09:47:22.549Z,99858.11
2022-11-23T09:48:43.510Z,99864.55
2022-11-23T09:50:03.837Z,99866.91
2022-11-23T09:51:18.908Z,99870.72
2022-11-23T09:52:23.628Z,99869.80
2022-11-23T09:54:39.614Z,99855.34
2022-11-23T09:55:45.252Z,99853.97
2022-11-23T09:56:50.441Z,99864.19
2022-11-23T09:57:56.187Z,99865.84
2022-11-23T09:59:01.716Z,99857.20
2022-11-23T10:00:07.377Z,99868.16
